sensor_id;sensor_type;location;lat;lon;timestamp;pressure;altitude;pressure_sealevel;temperature;humidity
10008;BME280;5043;41.766;26.204;2023-05-19T00:01:07;100796.66;;;14.58;100.00
10008;BME280;5043;41.766;26.204;2023-05-19T00:03:35;100789.53;;;14.58;100.00
10008;BME280;5043;41.766;26.204;2023-05-19T00:06:06;100784.59;;;14.54;100.00
10008;BME280;5043;41.766;26.204;2023-05-19T00:08:37;100783.19;;;14.50;100.00
10008;BME280;5043;41.766;26.204;2023-05-19T00:11:03;100772.56;;;14.50;100.00
10008;BME280;5043;41.766;26.204;2023-05-19T00:13:30;100790.44;;;14.48;100.00
10008;BME280;5043;41.766;26.204;2023-05-19T00:15:56;100772.00;;;14.46;100.00
10008;BME280;5043;41.766;26.204;2023-05-19T00:18:21;100715.16;;;13.98;100.00
10008;BME280;5043;41.766;26.204;2023-05-19T00:20:47;100774.81;;;14.54;100.00
10008;BME280;5043;41.766;26.204;2023-05-19T00:23:13;100725.75;;;14.18;100.00
10008;BME280;5043;41.766;26.204;2023-05-19T00:25:38;100777.38;;;14.56;100.00
10008;BME280;5043;41.766;26.204;2023-05-19T00:28:04;100748.00;;;14.27;100.00
10008;BME280;5043;41.766;26.204;2023-05-19T00:30:29;100770.00;;;14.38;100.00
10008;BME280;5043;41.766;26.204;2023-05-19T00:32:55;100773.38;;;14.40;100.00
10008;BME280;5043;41.766;26.204;2023-05-19T00:35:22;100774.63;;;14.36;100.00
10008;BME280;5043;41.766;26.204;2023-05-19T00:37:47;100768.59;;;14.34;100.00
10008;BME280;5043;41.766;26.204;2023-05-19T00:40:13;100771.66;;;14.30;100.00
10008;BME280;5043;41.766;26.204;2023-05-19T00:42:39;100777.56;;;14.43;100.00
10008;BME280;5043;41.766;26.204;2023-05-19T00:45:06;100735.25;;;14.21;100.00
10008;BME280;5043;41.766;26.204;2023-05-19T00:47:31;100770.72;;;14.40;100.00
10008;BME280;5043;41.766;26.204;2023-05-19T00:49:57;100773.38;;;14.40;100.00
10008;BME280;5043;41.766;26.204;2023-05-19T00:52:23;100774.91;;;14.43;100.00
10008;BME280;5043;41.766;26.204;2023-05-19T00:54:50;100619.84;;;13.45;100.00
10008;BME280;5043;41.766;26.204;2023-05-19T00:57:16;100773.13;;;14.43;100.00
10008;BME280;5043;41.766;26.204;2023-05-19T00:59:41;100754.84;;;14.29;100.00
10008;BME280;5043;41.766;26.204;2023-05-19T01:02:07;100771.25;;;14.34;100.00
10008;BME280;5043;41.766;26.204;2023-05-19T01:04:33;100751.06;;;14.22;100.00
10008;BME280;5043;41.766;26.204;2023-05-19T01:07:00;100756.66;;;14.29;100.00
10008;BME280;5043;41.766;26.204;2023-05-19T01:09:25;100757.50;;;14.29;100.00
10008;BME280;5043;41.766;26.204;2023-05-19T01:11:51;100690.28;;;13.89;100.00
10008;BME280;5043;41.766;26.204;2023-05-19T01:14:18;100780.63;;;14.38;100.00
10008;BME280;5043;41.766;26.204;2023-05-19T01:19:55;100770.00;;;14.38;100.00
10008;BME280;5043;41.766;26.204;2023-05-19T01:33:05;100762.22;;;14.46;100.00
10008;BME280;5043;41.766;26.204;2023-05-19T01:35:34;100731.94;;;14.28;100.00
10008;BME280;5043;41.766;26.204;2023-05-19T01:38:02;100769.91;;;14.50;100.00
10008;BME280;5043;41.766;26.204;2023-05-19T01:40:29;100790.31;;;14.49;100.00
10008;BME280;5043;41.766;26.204;2023-05-19T01:42:58;100711.59;;;14.08;100.00
10008;BME280;5043;41.766;26.204;2023-05-19T01:45:26;100768.00;;;14.31;100.00
10008;BME280;5043;41.766;26.204;2023-05-19T01:47:53;100769.00;;;14.30;100.00
10008;BME280;5043;41.766;26.204;2023-05-19T01:50:19;100761.91;;;14.19;100.00
10008;BME280;5043;41.766;26.204;2023-05-19T01:52:45;100773.19;;;14.32;100.00
10008;BME280;5043;41.766;26.204;2023-05-19T01:55:11;100715.69;;;13.92;100.00
10008;BME280;5043;41.766;26.204;2023-05-19T02:05:37;100807.94;;;14.29;100.00
10008;BME280;5043;41.766;26.204;2023-05-19T02:08:15;100796.16;;;14.22;100.00
10008;BME280;5043;41.766;26.204;2023-05-19T02:10:50;100729.75;;;13.83;100.00
10008;BME280;5043;41.766;26.204;2023-05-19T02:13:19;100771.63;;;14.09;100.00
10008;BME280;5043;41.766;26.204;2023-05-19T02:15:48;100791.91;;;14.10;100.00
10008;BME280;5043;41.766;26.204;2023-05-19T02:18:16;100785.19;;;14.06;100.00
10008;BME280;5043;41.766;26.204;2023-05-19T02:20:44;100785.56;;;14.02;100.00
10008;BME280;5043;41.766;26.204;2023-05-19T02:23:09;100765.50;;;13.88;100.00
10008;BME280;5043;41.766;26.204;2023-05-19T02:25:35;100794.56;;;14.10;100.00
10008;BME280;5043;41.766;26.204;2023-05-19T02:28:00;100752.53;;;13.85;100.00
10008;BME280;5043;41.766;26.204;2023-05-19T02:30:26;100787.16;;;13.93;100.00
10008;BME280;5043;41.766;26.204;2023-05-19T02:32:51;100779.97;;;14.05;100.00
10008;BME280;5043;41.766;26.204;2023-05-19T02:35:18;100788.53;;;14.08;100.00
10008;BME280;5043;41.766;26.204;2023-05-19T02:37:45;100828.66;;;14.15;100.00
10008;BME280;5043;41.766;26.204;2023-05-19T02:40:11;100760.34;;;13.87;100.00
10008;BME280;5043;41.766;26.204;2023-05-19T02:42:36;100792.44;;;14.04;100.00
10008;BME280;5043;41.766;26.204;2023-05-19T02:45:03;100802.44;;;14.01;100.00
10008;BME280;5043;41.766;26.204;2023-05-19T02:47:29;100822.03;;;14.09;100.00
10008;BME280;5043;41.766;26.204;2023-05-19T02:49:54;100776.38;;;13.85;100.00
10008;BME280;5043;41.766;26.204;2023-05-19T02:52:20;100825.94;;;14.05;100.00
10008;BME280;5043;41.766;26.204;2023-05-19T02:54:45;100829.03;;;14.10;100.00
10008;BME280;5043;41.766;26.204;2023-05-19T02:57:11;100782.19;;;13.79;100.00
10008;BME280;5043;41.766;26.204;2023-05-19T02:59:36;100832.16;;;14.15;100.00
10008;BME280;5043;41.766;26.204;2023-05-19T03:02:02;100827.81;;;14.14;100.00
10008;BME280;5043;41.766;26.204;2023-05-19T03:04:28;100841.28;;;14.22;100.00
10008;BME280;5043;41.766;26.204;2023-05-19T03:06:54;100844.44;;;14.16;100.00
10008;BME280;5043;41.766;26.204;2023-05-19T03:09:20;100785.03;;;13.87;100.00
10008;BME280;5043;41.766;26.204;2023-05-19T03:11:45;100821.72;;;14.03;100.00
10008;BME280;5043;41.766;26.204;2023-05-19T03:14:11;100852.75;;;14.23;100.00
10008;BME280;5043;41.766;26.204;2023-05-19T03:16:38;100828.34;;;14.08;100.00
10008;BME280;5043;41.766;26.204;2023-05-19T03:19:05;100827.88;;;14.03;100.00
10008;BME280;5043;41.766;26.204;2023-05-19T03:21:30;100861.13;;;14.28;100.00
10008;BME280;5043;41.766;26.204;2023-05-19T03:23:56;100816.25;;;13.95;100.00
10008;BME280;5043;41.766;26.204;2023-05-19T03:26:21;100890.47;;;14.26;100.00
10008;BME280;5043;41.766;26.204;2023-05-19T03:28:47;100853.94;;;14.19;100.00
10008;BME280;5043;41.766;26.204;2023-05-19T03:31:12;100883.19;;;14.08;100.00
10008;BME280;5043;41.766;26.204;2023-05-19T03:33:38;100865.00;;;14.03;100.00
10008;BME280;5043;41.766;26.204;2023-05-19T03:36:03;100875.84;;;14.11;100.00
10008;BME280;5043;41.766;26.204;2023-05-19T03:38:29;100871.03;;;14.05;100.00
10008;BME280;5043;41.766;26.204;2023-05-19T03:40:54;100863.59;;;13.99;100.00
10008;BME280;5043;41.766;26.204;2023-05-19T03:43:20;100817.75;;;13.76;100.00
10008;BME280;5043;41.766;26.204;2023-05-19T03:45:45;100864.09;;;13.93;100.00
10008;BME280;5043;41.766;26.204;2023-05-19T03:48:11;100870.31;;;14.03;100.00
10008;BME280;5043;41.766;26.204;2023-05-19T03:50:36;100807.44;;;13.73;100.00
10008;BME280;5043;41.766;26.204;2023-05-19T03:53:02;100884.63;;;14.12;100.00
10008;BME280;5043;41.766;26.204;2023-05-19T03:55:27;100825.53;;;13.68;100.00
10008;BME280;5043;41.766;26.204;2023-05-19T03:57:56;100834.03;;;13.72;100.00
10008;BME280;5043;41.766;26.204;2023-05-19T04:00:21;100897.16;;;14.10;100.00
10008;BME280;5043;41.766;26.204;2023-05-19T04:02:47;100905.97;;;14.10;100.00
10008;BME280;5043;41.766;26.204;2023-05-19T04:05:13;100895.16;;;14.02;100.00
10008;BME280;5043;41.766;26.204;2023-05-19T04:07:39;100903.91;;;14.14;100.00
10008;BME280;5043;41.766;26.204;2023-05-19T04:10:06;100890.94;;;14.31;100.00
10008;BME280;5043;41.766;26.204;2023-05-19T04:12:31;100893.53;;;14.42;100.00
10008;BME280;5043;41.766;26.204;2023-05-19T04:14:58;100914.25;;;14.49;100.00
10008;BME280;5043;41.766;26.204;2023-05-19T04:17:23;100890.78;;;14.54;100.00
10008;BME280;5043;41.766;26.204;2023-05-19T04:19:53;100844.63;;;14.24;100.00
10008;BME280;5043;41.766;26.204;2023-05-19T04:22:19;100898.44;;;14.47;100.00
10008;BME280;5043;41.766;26.204;2023-05-19T04:24:44;100917.78;;;14.59;100.00
10008;BME280;5043;41.766;26.204;2023-05-19T04:27:11;100816.03;;;14.07;100.00
10008;BME280;5043;41.766;26.204;2023-05-19T04:29:37;100913.34;;;14.89;100.00
10008;BME280;5043;41.766;26.204;2023-05-19T04:32:04;100905.56;;;14.97;100.00
10008;BME280;5043;41.766;26.204;2023-05-19T04:34:33;100905.28;;;14.91;100.00
10008;BME280;5043;41.766;26.204;2023-05-19T04:36:59;100886.94;;;14.88;100.00
10008;BME280;5043;41.766;26.204;2023-05-19T04:39:25;100843.84;;;14.84;100.00
10008;BME280;5043;41.766;26.204;2023-05-19T04:41:50;100900.91;;;15.20;100.00
10008;BME280;5043;41.766;26.204;2023-05-19T04:44:15;100900.75;;;15.22;100.00
10008;BME280;5043;41.766;26.204;2023-05-19T04:46:42;100928.22;;;15.32;100.00
10008;BME280;5043;41.766;26.204;2023-05-19T04:49:09;100863.09;;;15.07;100.00
10008;BME280;5043;41.766;26.204;2023-05-19T04:51:37;100906.03;;;15.42;100.00
10008;BME280;5043;41.766;26.204;2023-05-19T04:54:06;100812.69;;;14.96;100.00
10008;BME280;5043;41.766;26.204;2023-05-19T04:56:32;100912.06;;;15.44;100.00
10008;BME280;5043;41.766;26.204;2023-05-19T04:58:57;100931.44;;;15.65;100.00
10008;BME280;5043;41.766;26.204;2023-05-19T05:01:22;100937.50;;;15.87;100.00
10008;BME280;5043;41.766;26.204;2023-05-19T05:03:50;100925.75;;;15.99;100.00
10008;BME280;5043;41.766;26.204;2023-05-19T05:06:19;100931.75;;;16.01;100.00
10008;BME280;5043;41.766;26.204;2023-05-19T05:08:45;100945.63;;;16.14;100.00
10008;BME280;5043;41.766;26.204;2023-05-19T05:11:11;100909.19;;;16.14;99.34
10008;BME280;5043;41.766;26.204;2023-05-19T05:13:36;100934.28;;;16.40;98.54
10008;BME280;5043;41.766;26.204;2023-05-19T05:16:03;100939.19;;;16.64;98.08
10008;BME280;5043;41.766;26.204;2023-05-19T05:18:32;100878.19;;;16.42;97.82
10008;BME280;5043;41.766;26.204;2023-05-19T05:20:57;100935.19;;;16.87;97.85
10008;BME280;5043;41.766;26.204;2023-05-19T05:23:23;100940.47;;;17.06;96.47
10008;BME280;5043;41.766;26.204;2023-05-19T05:25:49;100951.84;;;16.99;96.87
10008;BME280;5043;41.766;26.204;2023-05-19T05:28:15;100969.63;;;17.08;96.88
10008;BME280;5043;41.766;26.204;2023-05-19T05:30:40;100907.66;;;16.96;96.93
10008;BME280;5043;41.766;26.204;2023-05-19T05:33:06;100927.13;;;17.34;96.00
10008;BME280;5043;41.766;26.204;2023-05-19T05:35:32;100929.34;;;17.38;95.35
10008;BME280;5043;41.766;26.204;2023-05-19T05:37:57;100946.66;;;17.61;95.19
10008;BME280;5043;41.766;26.204;2023-05-19T05:40:23;100921.75;;;17.53;94.49
10008;BME280;5043;41.766;26.204;2023-05-19T05:42:48;100947.69;;;17.78;94.18
10008;BME280;5043;41.766;26.204;2023-05-19T05:45:14;100954.72;;;17.97;93.04
10008;BME280;5043;41.766;26.204;2023-05-19T05:47:39;100948.66;;;18.04;92.64
10008;BME280;5043;41.766;26.204;2023-05-19T05:50:07;100937.25;;;18.20;92.56
10008;BME280;5043;41.766;26.204;2023-05-19T05:52:35;100954.06;;;18.47;90.49
10008;BME280;5043;41.766;26.204;2023-05-19T05:55:03;100950.06;;;18.69;89.95
10008;BME280;5043;41.766;26.204;2023-05-19T05:57:29;100949.91;;;18.71;88.11
10008;BME280;5043;41.766;26.204;2023-05-19T05:59:55;100914.56;;;18.41;88.49
10008;BME280;5043;41.766;26.204;2023-05-19T06:02:21;100953.38;;;18.63;89.04
10008;BME280;5043;41.766;26.204;2023-05-19T06:04:46;100981.66;;;18.74;87.96
10008;BME280;5043;41.766;26.204;2023-05-19T06:07:11;100968.00;;;18.77;86.93
10008;BME280;5043;41.766;26.204;2023-05-19T06:09:37;100978.28;;;18.89;86.99
10008;BME280;5043;41.766;26.204;2023-05-19T06:12:02;100972.41;;;18.86;86.74
10008;BME280;5043;41.766;26.204;2023-05-19T06:14:28;100955.31;;;18.79;85.68
10008;BME280;5043;41.766;26.204;2023-05-19T06:16:53;100962.75;;;18.93;85.62
10008;BME280;5043;41.766;26.204;2023-05-19T06:19:20;100969.72;;;19.11;85.05
10008;BME280;5043;41.766;26.204;2023-05-19T06:21:45;100918.06;;;18.85;84.68
10008;BME280;5043;41.766;26.204;2023-05-19T06:24:11;100953.00;;;19.09;83.86
10008;BME280;5043;41.766;26.204;2023-05-19T06:26:36;100990.22;;;19.29;83.21
10008;BME280;5043;41.766;26.204;2023-05-19T06:29:02;100976.34;;;19.33;83.75
10008;BME280;5043;41.766;26.204;2023-05-19T06:31:27;100982.66;;;19.24;82.51
10008;BME280;5043;41.766;26.204;2023-05-19T06:33:53;100978.38;;;19.31;83.35
10008;BME280;5043;41.766;26.204;2023-05-19T06:36:19;100993.75;;;19.29;83.30
10008;BME280;5043;41.766;26.204;2023-05-19T06:38:44;100971.41;;;19.38;82.95
10008;BME280;5043;41.766;26.204;2023-05-19T06:41:10;101013.50;;;19.62;81.82
10008;BME280;5043;41.766;26.204;2023-05-19T06:43:35;100989.41;;;19.62;81.96
10008;BME280;5043;41.766;26.204;2023-05-19T06:46:01;100976.53;;;19.65;80.53
10008;BME280;5043;41.766;26.204;2023-05-19T06:48:26;100932.66;;;19.50;80.62
10008;BME280;5043;41.766;26.204;2023-05-19T06:50:52;100995.66;;;19.86;79.86
10008;BME280;5043;41.766;26.204;2023-05-19T06:53:18;100931.50;;;19.61;79.46
10008;BME280;5043;41.766;26.204;2023-05-19T06:55:45;100943.28;;;19.76;79.20
10008;BME280;5043;41.766;26.204;2023-05-19T06:58:10;100972.81;;;20.08;79.68
10008;BME280;5043;41.766;26.204;2023-05-19T07:00:36;100932.94;;;19.97;78.81
10008;BME280;5043;41.766;26.204;2023-05-19T07:03:02;100947.00;;;20.07;78.57
10008;BME280;5043;41.766;26.204;2023-05-19T07:05:28;100931.41;;;20.03;78.48
10008;BME280;5043;41.766;26.204;2023-05-19T07:07:53;100985.59;;;20.46;78.38
10008;BME280;5043;41.766;26.204;2023-05-19T07:10:19;100993.66;;;20.63;78.89
10008;BME280;5043;41.766;26.204;2023-05-19T07:12:46;100971.84;;;20.49;78.86
10008;BME280;5043;41.766;26.204;2023-05-19T07:15:11;100991.13;;;20.85;77.83
10008;BME280;5043;41.766;26.204;2023-05-19T07:17:37;100992.81;;;20.86;77.89
10008;BME280;5043;41.766;26.204;2023-05-19T07:20:02;100988.44;;;20.93;78.41
10008;BME280;5043;41.766;26.204;2023-05-19T07:22:31;100990.59;;;21.06;78.93
10008;BME280;5043;41.766;26.204;2023-05-19T07:24:59;101019.44;;;21.20;77.72
10008;BME280;5043;41.766;26.204;2023-05-19T07:27:25;100983.34;;;21.31;77.49
10008;BME280;5043;41.766;26.204;2023-05-19T07:29:50;100984.28;;;21.46;76.26
10008;BME280;5043;41.766;26.204;2023-05-19T07:32:15;101002.59;;;21.42;75.24
10008;BME280;5043;41.766;26.204;2023-05-19T07:34:41;100935.09;;;21.14;74.24
10008;BME280;5043;41.766;26.204;2023-05-19T07:37:06;100987.59;;;21.56;74.25
10008;BME280;5043;41.766;26.204;2023-05-19T07:39:33;101003.06;;;21.54;73.95
10008;BME280;5043;41.766;26.204;2023-05-19T07:41:59;101012.03;;;21.69;73.75
10008;BME280;5043;41.766;26.204;2023-05-19T07:44:24;100971.75;;;21.69;74.73
10008;BME280;5043;41.766;26.204;2023-05-19T07:46:51;100992.03;;;21.79;73.82
10008;BME280;5043;41.766;26.204;2023-05-19T07:49:17;101006.78;;;21.83;74.89
10008;BME280;5043;41.766;26.204;2023-05-19T07:51:44;100990.16;;;21.88;74.26
10008;BME280;5043;41.766;26.204;2023-05-19T07:54:09;100945.81;;;21.53;73.12
10008;BME280;5043;41.766;26.204;2023-05-19T07:56:35;100982.28;;;21.78;72.95
10008;BME280;5043;41.766;26.204;2023-05-19T07:59:01;100897.38;;;21.47;74.40
10008;BME280;5043;41.766;26.204;2023-05-19T08:01:26;100987.66;;;22.17;74.47
10008;BME280;5043;41.766;26.204;2023-05-19T08:03:52;100980.56;;;22.24;74.65
10008;BME280;5043;41.766;26.204;2023-05-19T08:06:17;100987.66;;;22.17;72.86
10008;BME280;5043;41.766;26.204;2023-05-19T08:08:43;100990.03;;;22.35;73.47
10008;BME280;5043;41.766;26.204;2023-05-19T08:11:08;100950.25;;;22.08;72.38
10008;BME280;5043;41.766;26.204;2023-05-19T08:13:34;100969.59;;;22.26;72.70
10008;BME280;5043;41.766;26.204;2023-05-19T08:15:59;100932.44;;;22.07;71.77
10008;BME280;5043;41.766;26.204;2023-05-19T08:18:25;100969.59;;;22.48;72.71
10008;BME280;5043;41.766;26.204;2023-05-19T08:20:51;100997.94;;;22.59;73.00
10008;BME280;5043;41.766;26.204;2023-05-19T08:23:16;100982.16;;;22.79;72.86
10008;BME280;5043;41.766;26.204;2023-05-19T08:25:42;100985.84;;;22.78;71.26
10008;BME280;5043;41.766;26.204;2023-05-19T08:28:08;100995.88;;;22.84;69.64
10008;BME280;5043;41.766;26.204;2023-05-19T08:30:33;100979.00;;;22.90;70.47
10008;BME280;5043;41.766;26.204;2023-05-19T08:32:59;100973.47;;;23.06;69.71
10008;BME280;5043;41.766;26.204;2023-05-19T08:35:24;100983.69;;;23.25;68.03
10008;BME280;5043;41.766;26.204;2023-05-19T08:37:50;100955.56;;;23.27;68.39
10008;BME280;5043;41.766;26.204;2023-05-19T08:40:16;100967.00;;;23.44;68.32
10008;BME280;5043;41.766;26.204;2023-05-19T08:42:44;101002.28;;;23.64;66.64
10008;BME280;5043;41.766;26.204;2023-05-19T08:45:09;100977.47;;;23.68;67.85
10008;BME280;5043;41.766;26.204;2023-05-19T08:47:35;100992.81;;;23.53;68.03
10008;BME280;5043;41.766;26.204;2023-05-19T08:50:05;100976.09;;;23.43;66.59
10008;BME280;5043;41.766;26.204;2023-05-19T08:55:03;100958.66;;;23.54;66.86
10008;BME280;5043;41.766;26.204;2023-05-19T08:57:31;100973.91;;;23.82;67.50
10008;BME280;5043;41.766;26.204;2023-05-19T08:59:58;100954.03;;;23.83;66.78
10008;BME280;5043;41.766;26.204;2023-05-19T09:02:24;100967.94;;;24.23;67.88
10008;BME280;5043;41.766;26.204;2023-05-19T09:04:50;100963.72;;;24.35;64.93
10008;BME280;5043;41.766;26.204;2023-05-19T09:07:17;100977.72;;;24.45;61.70
10008;BME280;5043;41.766;26.204;2023-05-19T09:09:43;100947.59;;;24.41;62.46
10008;BME280;5043;41.766;26.204;2023-05-19T09:12:09;100932.81;;;24.37;62.56
10008;BME280;5043;41.766;26.204;2023-05-19T09:14:36;100954.13;;;24.53;62.14
10008;BME280;5043;41.766;26.204;2023-05-19T09:17:03;100944.44;;;24.59;62.25
10008;BME280;5043;41.766;26.204;2023-05-19T09:19:28;100915.22;;;24.69;61.04
10008;BME280;5043;41.766;26.204;2023-05-19T09:21:58;100955.25;;;25.14;51.73
10008;BME280;5043;41.766;26.204;2023-05-19T09:24:27;100922.44;;;25.17;50.56
10008;BME280;5043;41.766;26.204;2023-05-19T09:26:56;100953.59;;;25.54;51.50
10008;BME280;5043;41.766;26.204;2023-05-19T09:29:21;100944.59;;;25.88;52.87
10008;BME280;5043;41.766;26.204;2023-05-19T09:31:54;100957.91;;;25.96;44.39
10008;BME280;5043;41.766;26.204;2023-05-19T09:34:24;100963.19;;;26.17;42.89
10008;BME280;5043;41.766;26.204;2023-05-19T09:36:51;100948.44;;;26.26;41.29
10008;BME280;5043;41.766;26.204;2023-05-19T09:39:19;100948.03;;;26.29;41.05
10008;BME280;5043;41.766;26.204;2023-05-19T09:41:45;100939.22;;;26.08;41.95
10008;BME280;5043;41.766;26.204;2023-05-19T09:46:52;100911.88;;;25.70;42.82
10008;BME280;5043;41.766;26.204;2023-05-19T09:49:22;100944.59;;;25.88;43.90
10008;BME280;5043;41.766;26.204;2023-05-19T09:51:55;100948.53;;;25.85;41.99
10008;BME280;5043;41.766;26.204;2023-05-19T09:54:21;100957.03;;;25.82;41.95
10008;BME280;5043;41.766;26.204;2023-05-19T09:57:03;100903.25;;;25.47;42.25
10008;BME280;5043;41.766;26.204;2023-05-19T09:59:30;100944.53;;;25.75;42.86
10008;BME280;5043;41.766;26.204;2023-05-19T10:01:57;100940.41;;;25.79;43.17
10008;BME280;5043;41.766;26.204;2023-05-19T10:04:28;100952.00;;;25.66;42.31
10008;BME280;5043;41.766;26.204;2023-05-19T10:06:56;100907.97;;;25.38;42.80
10008;BME280;5043;41.766;26.204;2023-05-19T10:09:26;100936.78;;;25.59;43.56
10008;BME280;5043;41.766;26.204;2023-05-19T10:11:57;100946.34;;;25.61;43.74
10008;BME280;5043;41.766;26.204;2023-05-19T10:14:24;100999.56;;;25.61;43.76
10008;BME280;5043;41.766;26.204;2023-05-19T10:16:51;100946.72;;;25.45;44.29
10008;BME280;5043;41.766;26.204;2023-05-19T10:19:19;100928.78;;;25.03;44.14
10008;BME280;5043;41.766;26.204;2023-05-19T10:21:46;100957.50;;;25.11;44.42
10008;BME280;5043;41.766;26.204;2023-05-19T10:24:12;100948.56;;;25.10;43.70
10008;BME280;5043;41.766;26.204;2023-05-19T10:26:39;100934.19;;;25.03;43.21
10008;BME280;5043;41.766;26.204;2023-05-19T10:29:09;100953.56;;;25.13;44.71
10008;BME280;5043;41.766;26.204;2023-05-19T10:31:36;100941.59;;;25.22;42.65
10008;BME280;5043;41.766;26.204;2023-05-19T10:34:28;100880.78;;;24.99;41.79
10008;BME280;5043;41.766;26.204;2023-05-19T10:37:04;100943.31;;;25.84;41.10
10008;BME280;5043;41.766;26.204;2023-05-19T10:39:38;100898.34;;;25.70;39.75
10008;BME280;5043;41.766;26.204;2023-05-19T10:45:12;100950.13;;;26.60;38.30
10008;BME280;5043;41.766;26.204;2023-05-19T10:47:40;100934.31;;;26.83;38.39
10008;BME280;5043;41.766;26.204;2023-05-19T10:50:06;100935.28;;;27.15;38.26
10008;BME280;5043;41.766;26.204;2023-05-19T10:52:35;100943.16;;;27.29;37.11
10008;BME280;5043;41.766;26.204;2023-05-19T10:55:02;100938.38;;;27.45;36.41
10008;BME280;5043;41.766;26.204;2023-05-19T10:57:29;100890.41;;;27.32;36.69
10008;BME280;5043;41.766;26.204;2023-05-19T11:00:02;100939.56;;;27.62;37.30
10008;BME280;5043;41.766;26.204;2023-05-19T11:05:29;100940.03;;;27.39;36.85
10008;BME280;5043;41.766;26.204;2023-05-19T11:07:58;100893.84;;;27.01;38.19
10008;BME280;5043;41.766;26.204;2023-05-19T11:10:30;100925.44;;;27.40;37.77
10008;BME280;5043;41.766;26.204;2023-05-19T11:12:57;100956.53;;;27.31;39.12
10008;BME280;5043;41.766;26.204;2023-05-19T11:15:26;100931.34;;;27.11;38.91
10008;BME280;5043;41.766;26.204;2023-05-19T11:17:52;100936.56;;;27.06;39.87
10008;BME280;5043;41.766;26.204;2023-05-19T11:20:28;100933.06;;;26.79;39.99
10008;BME280;5043;41.766;26.204;2023-05-19T11:23:24;100924.31;;;26.44;40.14
10008;BME280;5043;41.766;26.204;2023-05-19T11:25:50;100827.66;;;25.73;41.04
10008;BME280;5043;41.766;26.204;2023-05-19T11:28:19;100918.25;;;26.16;42.00
10008;BME280;5043;41.766;26.204;2023-05-19T11:30:50;100841.94;;;25.47;42.31
10008;BME280;5043;41.766;26.204;2023-05-19T11:33:19;100913.56;;;25.84;42.66
10008;BME280;5043;41.766;26.204;2023-05-19T11:35:45;100929.47;;;26.13;43.42
10008;BME280;5043;41.766;26.204;2023-05-19T11:38:12;100918.69;;;26.79;41.44
10008;BME280;5043;41.766;26.204;2023-05-19T11:40:39;100910.44;;;27.31;39.81
10008;BME280;5043;41.766;26.204;2023-05-19T11:43:06;100904.50;;;27.60;39.36
10008;BME280;5043;41.766;26.204;2023-05-19T11:45:32;100912.13;;;27.76;37.52
10008;BME280;5043;41.766;26.204;2023-05-19T11:47:58;100914.19;;;27.81;36.89
10008;BME280;5043;41.766;26.204;2023-05-19T11:50:24;100896.91;;;27.31;36.92
10008;BME280;5043;41.766;26.204;2023-05-19T11:52:51;100904.81;;;27.33;37.39
10008;BME280;5043;41.766;26.204;2023-05-19T11:55:17;100872.94;;;27.28;38.50
10008;BME280;5043;41.766;26.204;2023-05-19T11:57:56;100890.31;;;27.96;37.53
10008;BME280;5043;41.766;26.204;2023-05-19T12:00:27;100902.81;;;28.59;35.88
10008;BME280;5043;41.766;26.204;2023-05-19T12:02:52;100900.97;;;28.78;33.98
10008;BME280;5043;41.766;26.204;2023-05-19T12:05:20;100887.81;;;28.75;34.67
10008;BME280;5043;41.766;26.204;2023-05-19T12:07:45;100847.44;;;28.36;34.33
10008;BME280;5043;41.766;26.204;2023-05-19T12:10:11;100908.19;;;28.41;34.64
10008;BME280;5043;41.766;26.204;2023-05-19T12:12:37;100897.63;;;27.58;31.40
10008;BME280;5043;41.766;26.204;2023-05-19T12:15:05;100901.78;;;27.03;31.66
10008;BME280;5043;41.766;26.204;2023-05-19T12:17:32;100905.56;;;26.36;32.14
10008;BME280;5043;41.766;26.204;2023-05-19T12:19:58;100904.66;;;26.03;31.84
10008;BME280;5043;41.766;26.204;2023-05-19T12:22:24;100915.47;;;25.90;33.23
10008;BME280;5043;41.766;26.204;2023-05-19T12:24:50;100936.00;;;25.65;34.84
10008;BME280;5043;41.766;26.204;2023-05-19T12:27:18;100933.63;;;25.14;37.33
10008;BME280;5043;41.766;26.204;2023-05-19T12:29:48;100932.22;;;24.63;41.66
10008;BME280;5043;41.766;26.204;2023-05-19T12:32:25;100964.78;;;23.98;44.90
10008;BME280;5043;41.766;26.204;2023-05-19T12:34:52;100978.41;;;23.61;47.68
10008;BME280;5043;41.766;26.204;2023-05-19T12:37:18;100969.94;;;23.20;49.57
10008;BME280;5043;41.766;26.204;2023-05-19T12:39:44;100965.06;;;22.72;54.39
10008;BME280;5043;41.766;26.204;2023-05-19T12:42:11;100908.97;;;22.23;59.26
10008;BME280;5043;41.766;26.204;2023-05-19T12:44:45;100929.94;;;22.05;61.12
10008;BME280;5043;41.766;26.204;2023-05-19T12:47:12;100938.50;;;21.78;64.36
10008;BME280;5043;41.766;26.204;2023-05-19T12:49:56;100932.84;;;21.65;67.18
10008;BME280;5043;41.766;26.204;2023-05-19T12:52:27;100873.44;;;21.29;67.10
10008;BME280;5043;41.766;26.204;2023-05-19T12:55:01;100868.34;;;21.11;67.32
10008;BME280;5043;41.766;26.204;2023-05-19T12:57:28;100923.56;;;21.45;67.50
10008;BME280;5043;41.766;26.204;2023-05-19T13:00:07;100930.47;;;21.31;68.70
10008;BME280;5043;41.766;26.204;2023-05-19T13:05:38;100930.00;;;21.28;69.00
10008;BME280;5043;41.766;26.204;2023-05-19T13:08:06;100881.78;;;20.87;68.47
10008;BME280;5043;41.766;26.204;2023-05-19T13:10:33;100935.59;;;21.10;69.76
10008;BME280;5043;41.766;26.204;2023-05-19T13:12:59;100941.44;;;21.13;69.08
10008;BME280;5043;41.766;26.204;2023-05-19T13:15:26;100915.16;;;20.93;68.46
10008;BME280;5043;41.766;26.204;2023-05-19T13:17:53;100966.59;;;21.12;67.89
10008;BME280;5043;41.766;26.204;2023-05-19T13:20:20;100958.59;;;21.04;67.80